createdAt,value
2018-04-18T00:00:29.378Z,12.74
2018-04-18T00:01:29.366Z,12.60
2018-04-18T00:02:29.371Z,12.65
2018-04-18T00:03:29.334Z,12.56
2018-04-18T00:04:29.360Z,12.56
2018-04-18T00:05:29.315Z,12.64
2018-04-18T00:06:29.297Z,12.57
2018-04-18T00:07:29.282Z,12.57
2018-04-18T00:08:29.274Z,12.59
2018-04-18T00:09:29.255Z,12.56
2018-04-18T00:10:29.257Z,12.57
2018-04-18T00:11:29.228Z,12.67
2018-04-18T00:12:29.215Z,12.57
2018-04-18T00:13:29.203Z,12.62
2018-04-18T00:14:29.186Z,12.67
2018-04-18T00:15:29.193Z,12.57
2018-04-18T00:16:29.163Z,12.65
2018-04-18T00:17:29.146Z,12.68
2018-04-18T00:18:29.132Z,12.68
2018-04-18T00:19:29.119Z,12.64
2018-04-18T00:20:29.124Z,12.64
2018-04-18T00:21:29.094Z,12.62
2018-04-18T00:22:29.079Z,12.57
2018-04-18T00:23:29.062Z,12.54
2018-04-18T00:24:29.050Z,12.59
2018-04-18T00:25:29.036Z,12.53
2018-04-18T00:26:29.040Z,12.57
2018-04-18T00:27:29.004Z,12.41
2018-04-18T00:28:28.994Z,12.41
2018-04-18T00:29:28.985Z,12.52
2018-04-18T00:30:28.969Z,12.46
2018-04-18T00:31:28.965Z,12.56
2018-04-18T00:32:28.958Z,12.52
2018-04-18T00:33:28.926Z,12.37
2018-04-18T00:34:28.911Z,12.42
2018-04-18T00:35:28.901Z,12.46
2018-04-18T00:36:28.883Z,12.41
2018-04-18T00:37:28.892Z,12.39
2018-04-18T00:38:28.858Z,12.35
2018-04-18T00:39:28.847Z,12.27
2018-04-18T00:40:28.829Z,12.29
2018-04-18T00:41:28.813Z,12.20
2018-04-18T00:42:28.800Z,12.20
2018-04-18T00:43:28.803Z,12.16
2018-04-18T00:44:28.774Z,12.19
2018-04-18T00:45:28.760Z,12.20
2018-04-18T00:46:28.747Z,12.21
2018-04-18T00:47:28.731Z,12.19
2018-04-18T00:48:28.744Z,12.21
2018-04-18T00:49:28.703Z,12.20
2018-04-18T00:50:28.692Z,12.13
2018-04-18T00:51:28.676Z,12.07
2018-04-18T00:52:28.661Z,12.14
2018-04-18T00:53:28.646Z,12.05
2018-04-18T00:54:28.653Z,12.02
2018-04-18T00:55:28.622Z,12.10
2018-04-18T00:56:28.605Z,12.04
2018-04-18T00:57:28.588Z,12.12
2018-04-18T00:58:28.579Z,12.07
2018-04-18T00:59:28.579Z,12.02
2018-04-18T01:00:28.552Z,12.01
2018-04-18T01:01:28.537Z,11.98
2018-04-18T01:02:28.524Z,11.88
2018-04-18T01:03:28.511Z,11.83
2018-04-18T01:04:28.506Z,11.94
2018-04-18T01:05:28.511Z,11.94
2018-04-18T01:06:28.467Z,11.99
2018-04-18T01:07:28.450Z,11.95
2018-04-18T01:08:28.437Z,12.04
2018-04-18T01:09:28.424Z,11.99
2018-04-18T01:10:28.411Z,11.94
2018-04-18T01:11:28.410Z,12.05
2018-04-18T01:12:28.383Z,11.96
2018-04-18T01:13:28.370Z,11.96
2018-04-18T01:14:28.372Z,12.01
2018-04-18T01:15:28.336Z,11.91
2018-04-18T01:16:49.333Z,11.88
2018-04-18T01:17:28.312Z,11.96
2018-04-18T01:18:28.299Z,11.91
2018-04-18T01:19:28.283Z,11.86
2018-04-18T01:20:28.283Z,11.86
2018-04-18T01:21:28.270Z,11.83
2018-04-18T01:22:28.254Z,11.79
2018-04-18T01:23:28.225Z,11.85
2018-04-18T01:24:28.211Z,11.83
2018-04-18T01:25:28.198Z,11.72
2018-04-18T01:26:28.189Z,11.67
2018-04-18T01:27:28.185Z,11.76
2018-04-18T01:28:28.156Z,11.82
2018-04-18T01:29:28.138Z,11.83
2018-04-18T01:30:28.127Z,11.79
2018-04-18T01:31:28.117Z,11.85
2018-04-18T01:32:28.112Z,11.80
2018-04-18T01:33:28.085Z,11.70
2018-04-18T01:34:28.086Z,11.80
2018-04-18T01:35:28.055Z,11.82
2018-04-18T01:36:28.039Z,11.78
2018-04-18T01:37:28.029Z,11.75
2018-04-18T01:38:28.044Z,11.83
2018-04-18T01:39:27.997Z,11.85
2018-04-18T01:40:28.011Z,11.82
2018-04-18T01:41:27.971Z,11.78
2018-04-18T01:42:27.960Z,11.80
2018-04-18T01:43:27.937Z,11.79
2018-04-18T01:44:27.930Z,11.69
2018-04-18T01:45:27.929Z,11.78
2018-04-18T01:46:27.897Z,11.70
2018-04-18T01:47:27.884Z,11.75
2018-04-18T01:48:27.873Z,11.75
2018-04-18T01:49:27.852Z,11.75
2018-04-18T01:50:27.860Z,11.65
2018-04-18T01:51:27.823Z,11.69
2018-04-18T01:52:27.812Z,11.64
2018-04-18T01:53:27.802Z,11.67
2018-04-18T01:54:27.782Z,11.69
2018-04-18T01:55:27.782Z,11.64
2018-04-18T01:56:27.756Z,11.62
2018-04-18T01:57:27.750Z,11.60
2018-04-18T01:58:27.727Z,11.67
2018-04-18T01:59:27.712Z,11.64
2018-04-18T02:00:27.716Z,11.57
2018-04-18T02:01:27.681Z,11.60
2018-04-18T02:02:27.674Z,11.61
2018-04-18T02:03:27.659Z,11.60
2018-04-18T02:04:27.649Z,11.57
2018-04-18T02:05:27.677Z,11.57
2018-04-18T02:06:27.632Z,11.60
2018-04-18T02:07:27.609Z,11.43
2018-04-18T02:08:27.580Z,11.44
2018-04-18T02:09:27.570Z,11.49
2018-04-18T02:10:27.563Z,11.46
2018-04-18T02:11:27.557Z,11.43
2018-04-18T02:12:27.528Z,11.47
2018-04-18T02:13:27.519Z,11.46
2018-04-18T02:14:27.503Z,11.42
2018-04-18T02:15:27.482Z,11.43
2018-04-18T02:16:27.491Z,11.43
2018-04-18T02:17:27.452Z,11.32
2018-04-18T02:18:27.451Z,11.28
2018-04-18T02:19:27.420Z,11.47
2018-04-18T02:20:27.414Z,11.44
2018-04-18T02:21:27.408Z,11.46
2018-04-18T02:22:27.396Z,11.32
2018-04-18T02:23:27.366Z,11.39
2018-04-18T02:24:27.352Z,11.62
2018-04-18T02:25:27.341Z,11.64
2018-04-18T02:26:27.324Z,11.61
2018-04-18T02:27:27.320Z,11.55
2018-04-18T02:28:27.296Z,11.46
2018-04-18T02:29:27.279Z,11.46
2018-04-18T02:30:27.265Z,11.47
2018-04-18T02:31:27.255Z,11.46
2018-04-18T02:32:27.237Z,11.42
2018-04-18T02:33:27.236Z,11.29
2018-04-18T02:34:27.208Z,11.28
2018-04-18T02:35:27.191Z,11.28
2018-04-18T02:36:27.182Z,11.27
2018-04-18T02:37:27.162Z,11.17
2018-04-18T02:38:27.171Z,11.29
2018-04-18T02:39:27.134Z,11.32
2018-04-18T02:40:27.116Z,11.37
2018-04-18T02:41:27.103Z,11.43
2018-04-18T02:42:27.090Z,11.37
2018-04-18T02:43:27.067Z,11.29
2018-04-18T02:44:27.071Z,11.33
2018-04-18T02:45:27.041Z,11.24
2018-04-18T02:46:27.029Z,11.25
2018-04-18T02:47:27.010Z,11.21
2018-04-18T02:48:27.001Z,11.17
2018-04-18T02:49:27.001Z,11.14
2018-04-18T02:50:26.971Z,11.09
2018-04-18T02:51:26.957Z,11.14
2018-04-18T02:52:26.943Z,11.04
2018-04-18T02:53:26.925Z,11.03
2018-04-18T02:54:26.912Z,10.97
2018-04-18T02:55:26.916Z,10.96
2018-04-18T02:56:26.903Z,10.99
2018-04-18T02:57:26.866Z,11.00
2018-04-18T02:58:26.851Z,11.06
2018-04-18T02:59:26.834Z,11.04
2018-04-18T03:00:26.820Z,10.97
2018-04-18T03:01:26.808Z,11.04
2018-04-18T03:02:26.809Z,11.00
2018-04-18T03:03:26.777Z,10.96
2018-04-18T03:04:26.777Z,11.00
2018-04-18T03:05:26.749Z,10.97
2018-04-18T03:06:26.736Z,10.99
2018-04-18T03:07:26.718Z,10.94
2018-04-18T03:08:26.704Z,11.04
2018-04-18T03:09:26.696Z,10.99
2018-04-18T03:10:26.694Z,11.02
2018-04-18T03:11:26.681Z,10.99
2018-04-18T03:12:26.663Z,10.88
2018-04-18T03:13:26.640Z,10.88
2018-04-18T03:14:26.616Z,10.91
2018-04-18T03:15:26.616Z,10.89
2018-04-18T03:16:26.588Z,10.85
2018-04-18T03:17:26.610Z,10.88
2018-04-18T03:18:26.573Z,10.85
2018-04-18T03:19:26.545Z,10.91
2018-04-18T03:20:26.526Z,10.91
2018-04-18T03:21:26.513Z,10.91
2018-04-18T03:22:26.497Z,10.91
2018-04-18T03:23:26.483Z,10.88
2018-04-18T03:24:26.488Z,10.89
2018-04-18T03:25:26.455Z,10.76
2018-04-18T03:26:26.449Z,10.88
2018-04-18T03:27:47.434Z,10.79
2018-04-18T03:28:26.409Z,10.78
2018-04-18T03:29:26.398Z,10.94
2018-04-18T03:30:26.381Z,10.85
2018-04-18T03:31:26.379Z,10.86
2018-04-18T03:32:26.350Z,10.79
2018-04-18T03:33:26.336Z,10.81
2018-04-18T03:34:26.320Z,10.81
2018-04-18T03:35:26.310Z,10.81
2018-04-18T03:36:26.291Z,10.78
2018-04-18T03:37:26.292Z,10.81
2018-04-18T03:38:26.261Z,10.85
2018-04-18T03:39:26.248Z,10.92
2018-04-18T03:40:26.232Z,10.88
2018-04-18T03:41:26.218Z,10.99
2018-04-18T03:42:26.222Z,11.06
2018-04-18T03:43:26.187Z,11.09
2018-04-18T03:44:26.175Z,11.18
2018-04-18T03:45:26.160Z,11.25
2018-04-18T03:46:26.142Z,11.44
2018-04-18T03:47:26.144Z,11.44
2018-04-18T03:48:26.130Z,11.46
2018-04-18T03:49:26.099Z,11.57
2018-04-18T03:50:26.083Z,11.62
2018-04-18T03:51:26.067Z,11.72
2018-04-18T03:52:26.052Z,11.60
2018-04-18T03:53:26.054Z,11.62
2018-04-18T03:54:26.022Z,11.52
2018-04-18T03:55:26.008Z,11.46
2018-04-18T03:56:25.993Z,11.49
2018-04-18T03:57:25.976Z,11.37
2018-04-18T03:58:25.980Z,11.42
2018-04-18T03:59:25.966Z,11.36
2018-04-18T04:00:25.931Z,11.27
2018-04-18T04:01:25.918Z,11.24
2018-04-18T04:02:25.915Z,11.18
2018-04-18T04:03:25.890Z,11.22
2018-04-18T04:04:25.890Z,11.10
2018-04-18T04:05:25.860Z,11.17
2018-04-18T04:06:25.846Z,11.07
2018-04-18T04:07:25.831Z,11.11
2018-04-18T04:08:25.818Z,10.99
2018-04-18T04:09:25.823Z,11.02
2018-04-18T04:10:25.790Z,11.03
2018-04-18T04:11:25.772Z,10.99
2018-04-18T04:12:25.759Z,10.97
2018-04-18T04:13:25.742Z,11.02
2018-04-18T04:14:25.729Z,10.99
2018-04-18T04:15:46.729Z,11.03
2018-04-18T04:16:25.699Z,11.18
2018-04-18T04:17:25.682Z,11.14
2018-04-18T04:18:25.670Z,11.15
2018-04-18T04:19:25.652Z,11.15
2018-04-18T04:20:25.653Z,11.11
2018-04-18T04:21:25.623Z,11.14
2018-04-18T04:22:25.622Z,11.19
2018-04-18T04:23:25.591Z,11.14
2018-04-18T04:24:25.575Z,11.11
2018-04-18T04:25:25.568Z,11.11
2018-04-18T04:26:25.565Z,11.04
2018-04-18T04:27:25.540Z,11.07
2018-04-18T04:28:25.519Z,11.06
2018-04-18T04:29:25.503Z,11.03
2018-04-18T04:30:25.488Z,10.99
2018-04-18T04:31:25.489Z,11.07
2018-04-18T04:32:25.460Z,11.11
2018-04-18T04:33:25.444Z,11.35
2018-04-18T04:34:25.430Z,11.35
2018-04-18T04:35:25.412Z,11.36
2018-04-18T04:36:25.414Z,11.40
2018-04-18T04:37:25.384Z,11.42
2018-04-18T04:38:25.371Z,11.37
2018-04-18T04:39:25.356Z,11.43
2018-04-18T04:40:25.336Z,11.43
2018-04-18T04:41:25.327Z,11.46
2018-04-18T04:42:25.326Z,11.67
2018-04-18T04:43:25.294Z,11.61
2018-04-18T04:44:25.277Z,11.60
2018-04-18T04:45:25.266Z,11.61
2018-04-18T04:46:25.252Z,11.58
2018-04-18T04:47:25.252Z,11.61
2018-04-18T04:48:25.221Z,11.51
2018-04-18T04:49:25.204Z,11.47
2018-04-18T04:50:25.191Z,11.47
2018-04-18T04:51:25.176Z,11.43
2018-04-18T04:52:25.160Z,11.40
2018-04-18T04:53:25.161Z,11.36
2018-04-18T04:54:25.164Z,11.35
2018-04-18T04:55:25.120Z,11.37
2018-04-18T04:56:25.135Z,11.42
2018-04-18T04:57:25.087Z,11.35
2018-04-18T04:58:25.083Z,11.33
2018-04-18T04:59:25.060Z,11.32
2018-04-18T05:00:25.041Z,11.42
2018-04-18T05:01:25.045Z,11.43
2018-04-18T05:02:25.014Z,11.46
2018-04-18T05:03:25.000Z,11.36
2018-04-18T05:04:24.986Z,11.46
2018-04-18T05:05:24.968Z,11.46
2018-04-18T05:06:24.953Z,11.47
2018-04-18T05:07:24.949Z,11.52
2018-04-18T05:08:24.920Z,11.51
2018-04-18T05:09:24.913Z,11.54
2018-04-18T05:10:24.903Z,11.58
2018-04-18T05:11:24.894Z,11.76
2018-04-18T05:12:24.862Z,11.83
2018-04-18T05:13:24.862Z,11.98
2018-04-18T05:14:24.834Z,12.02
2018-04-18T05:15:24.819Z,12.10
2018-04-18T05:16:24.816Z,12.17
2018-04-18T05:17:24.804Z,12.32
2018-04-18T05:18:24.773Z,12.29
2018-04-18T05:19:24.756Z,12.38
2018-04-18T05:20:24.762Z,12.60
2018-04-18T05:21:24.747Z,12.54
2018-04-18T05:22:24.717Z,12.64
2018-04-18T05:23:24.717Z,12.67
2018-04-18T05:24:24.688Z,12.72
2018-04-18T05:25:24.672Z,12.85
2018-04-18T05:26:24.656Z,12.93
2018-04-18T05:27:24.671Z,12.92
2018-04-18T05:28:24.628Z,13.00
2018-04-18T05:29:24.612Z,13.11
2018-04-18T05:30:24.601Z,13.12
2018-04-18T05:31:24.582Z,13.11
2018-04-18T05:32:24.568Z,13.17
2018-04-18T05:33:24.569Z,13.10
2018-04-18T05:34:24.543Z,13.14
2018-04-18T05:35:24.525Z,13.10
2018-04-18T05:36:24.507Z,13.14
2018-04-18T05:37:24.542Z,13.14
2018-04-18T05:38:24.499Z,13.23
2018-04-18T05:39:24.470Z,13.15
2018-04-18T05:40:24.453Z,13.20
2018-04-18T05:41:24.440Z,13.23
2018-04-18T05:42:24.440Z,13.19
2018-04-18T05:43:24.409Z,13.17
2018-04-18T05:44:24.393Z,13.19
2018-04-18T05:45:24.381Z,13.19
2018-04-18T05:46:24.386Z,13.30
2018-04-18T05:47:24.355Z,13.26
2018-04-18T05:48:24.341Z,13.30
2018-04-18T05:49:24.322Z,13.26
2018-04-18T05:50:24.311Z,13.29
2018-04-18T05:51:24.393Z,13.32
2018-04-18T05:52:24.300Z,13.32
2018-04-18T05:53:24.268Z,13.39
2018-04-18T05:54:24.249Z,13.42
2018-04-18T05:55:24.271Z,13.46
2018-04-18T05:56:24.247Z,13.49
2018-04-18T05:57:24.212Z,13.48
2018-04-18T05:58:24.213Z,13.49
2018-04-18T05:59:24.186Z,13.51
2018-04-18T06:00:24.168Z,13.60
2018-04-18T06:01:24.157Z,13.60
2018-04-18T06:02:24.163Z,13.64
2018-04-18T06:03:24.124Z,13.66
2018-04-18T06:04:24.111Z,13.64
2018-04-18T06:05:24.092Z,13.73
2018-04-18T06:06:24.085Z,13.63
2018-04-18T06:07:24.085Z,13.71
2018-04-18T06:08:24.051Z,13.70
2018-04-18T06:09:24.043Z,13.79
2018-04-18T06:10:24.025Z,13.81
2018-04-18T06:11:24.028Z,13.81
2018-04-18T06:12:23.999Z,13.82
2018-04-18T06:13:24.002Z,13.87
2018-04-18T06:14:23.971Z,13.89
2018-04-18T06:15:23.958Z,13.96
2018-04-18T06:16:23.946Z,13.97
2018-04-18T06:17:23.928Z,14.03
2018-04-18T06:18:23.913Z,14.10
2018-04-18T06:19:23.940Z,14.17
2018-04-18T06:20:23.891Z,14.28
2018-04-18T06:21:23.872Z,14.21
2018-04-18T06:22:23.865Z,14.24
2018-04-18T06:23:23.864Z,14.27
2018-04-18T06:24:23.831Z,14.21
2018-04-18T06:25:23.816Z,14.24
2018-04-18T06:26:23.806Z,14.25
2018-04-18T06:27:23.789Z,14.36
2018-04-18T06:28:23.776Z,14.36
2018-04-18T06:29:23.774Z,14.46
2018-04-18T06:30:23.754Z,14.46
2018-04-18T06:31:23.736Z,14.55
2018-04-18T06:32:23.718Z,14.65
2018-04-18T06:33:23.708Z,14.62
2018-04-18T06:34:23.714Z,14.62
2018-04-18T06:35:23.680Z,14.65
2018-04-18T06:36:23.668Z,14.80
2018-04-18T06:37:23.653Z,14.83
2018-04-18T06:38:23.637Z,14.86
2018-04-18T06:39:23.632Z,14.83
2018-04-18T06:40:23.627Z,14.86
2018-04-18T06:41:23.597Z,14.96
2018-04-18T06:42:23.600Z,14.99
2018-04-18T06:43:23.572Z,14.98
2018-04-18T06:44:23.559Z,14.98
2018-04-18T06:45:23.565Z,14.96
2018-04-18T06:46:23.537Z,14.98
2018-04-18T06:47:23.520Z,15.06
2018-04-18T06:48:23.553Z,15.09
2018-04-18T06:49:23.493Z,15.09
2018-04-18T06:50:23.479Z,15.13
2018-04-18T06:51:23.483Z,15.14
2018-04-18T06:52:23.455Z,15.10
2018-04-18T06:53:23.440Z,15.25
2018-04-18T06:54:23.425Z,15.29
2018-04-18T06:55:23.417Z,15.20
2018-04-18T06:56:23.413Z,15.29
2018-04-18T06:57:23.387Z,15.34
2018-04-18T06:58:23.375Z,15.36
2018-04-18T06:59:23.359Z,15.38
2018-04-18T07:00:23.346Z,15.44
2018-04-18T07:01:23.349Z,15.49
2018-04-18T07:02:23.340Z,15.47
2018-04-18T07:03:23.308Z,15.59
2018-04-18T07:04:23.295Z,15.54
2018-04-18T07:05:23.282Z,15.62
2018-04-18T07:06:23.268Z,15.72
2018-04-18T07:07:23.257Z,15.72
2018-04-18T07:08:23.259Z,15.71
2018-04-18T07:09:23.230Z,15.65
2018-04-18T07:10:23.218Z,15.74
2018-04-18T07:11:23.200Z,15.75
2018-04-18T07:12:23.191Z,15.89
2018-04-18T07:13:23.181Z,15.93
2018-04-18T07:14:23.181Z,15.86
2018-04-18T07:15:23.152Z,15.84
2018-04-18T07:16:23.139Z,15.89
2018-04-18T07:17:23.130Z,15.94
2018-04-18T07:18:23.116Z,16.05
2018-04-18T07:19:23.133Z,16.08
2018-04-18T07:20:23.091Z,16.04
2018-04-18T07:21:23.095Z,16.12
2018-04-18T07:22:23.063Z,16.17
2018-04-18T07:23:23.049Z,16.20
2018-04-18T07:24:23.039Z,16.38
2018-04-18T07:25:23.043Z,16.35
2018-04-18T07:26:23.008Z,16.39
2018-04-18T07:27:22.997Z,16.49
2018-04-18T07:28:22.993Z,16.60
2018-04-18T07:29:22.974Z,16.68
2018-04-18T07:30:22.994Z,16.67
2018-04-18T07:31:22.949Z,16.73
2018-04-18T07:32:22.930Z,16.89
2018-04-18T07:33:22.926Z,17.01
2018-04-18T07:34:22.920Z,16.96
2018-04-18T07:35:22.898Z,16.97
2018-04-18T07:36:22.901Z,17.00
2018-04-18T07:37:22.876Z,17.11
2018-04-18T07:38:22.863Z,17.01
2018-04-18T07:39:22.850Z,16.97
2018-04-18T07:40:22.855Z,17.00
2018-04-18T07:41:22.824Z,17.12
2018-04-18T07:42:22.815Z,17.16
2018-04-18T07:43:22.800Z,17.21
2018-04-18T07:44:22.790Z,17.30
2018-04-18T07:45:22.777Z,17.31
2018-04-18T07:46:22.780Z,17.28
2018-04-18T07:47:22.751Z,17.43
2018-04-18T07:48:22.740Z,17.55
2018-04-18T07:49:22.728Z,17.55
2018-04-18T07:50:22.719Z,17.56
2018-04-18T07:51:22.725Z,17.56
2018-04-18T07:52:22.689Z,17.64
2018-04-18T07:53:22.681Z,17.59
2018-04-18T07:54:22.670Z,17.59
2018-04-18T07:55:22.664Z,17.74
2018-04-18T07:56:22.648Z,17.81
2018-04-18T07:57:22.653Z,17.92
2018-04-18T07:58:22.621Z,17.93
2018-04-18T07:59:22.611Z,17.92
2018-04-18T08:00:22.619Z,18.07
2018-04-18T08:01:22.586Z,18.20
2018-04-18T08:02:22.600Z,18.27
2018-04-18T08:03:22.566Z,18.15
2018-04-18T08:04:22.551Z,18.18
2018-04-18T08:05:22.561Z,18.25
2018-04-18T08:06:22.526Z,18.30
2018-04-18T08:07:22.519Z,18.45
2018-04-18T08:08:22.524Z,18.54
2018-04-18T08:09:22.508Z,18.58
2018-04-18T08:10:22.499Z,18.66
2018-04-18T08:11:22.472Z,18.75
2018-04-18T08:12:22.463Z,18.85
2018-04-18T08:13:22.466Z,19.06
2018-04-18T08:14:22.455Z,19.06
2018-04-18T08:15:22.523Z,19.13
2018-04-18T08:16:22.418Z,19.21
2018-04-18T08:17:22.407Z,19.22
2018-04-18T08:18:22.397Z,19.22
2018-04-18T08:19:22.384Z,19.26
2018-04-18T08:20:22.390Z,19.32
2018-04-18T08:21:22.360Z,19.36
2018-04-18T08:22:22.355Z,19.39
2018-04-18T08:23:22.334Z,19.48
2018-04-18T08:24:22.339Z,19.51
2018-04-18T08:25:22.317Z,19.54
2018-04-18T08:26:22.307Z,19.62
2018-04-18T08:27:22.313Z,19.69
2018-04-18T08:28:22.287Z,19.66
2018-04-18T08:29:22.277Z,19.78
2018-04-18T08:30:22.265Z,19.88
2018-04-18T08:31:22.252Z,19.95
2018-04-18T08:32:22.266Z,20.14
2018-04-18T08:33:22.235Z,20.36
2018-04-18T08:34:22.222Z,20.50
2018-04-18T08:35:22.207Z,20.70
2018-04-18T08:36:22.199Z,20.88
2018-04-18T08:37:22.209Z,20.97
2018-04-18T08:38:22.182Z,21.04
2018-04-18T08:39:22.181Z,21.22
2018-04-18T08:40:22.163Z,21.32
2018-04-18T08:41:22.151Z,21.47
2018-04-18T08:42:22.139Z,21.61
2018-04-18T08:43:22.143Z,21.79
2018-04-18T08:44:22.121Z,22.03
2018-04-18T08:45:43.123Z,22.20
2018-04-18T08:46:22.099Z,22.40
2018-04-18T08:47:22.086Z,22.57
2018-04-18T08:48:22.096Z,22.62
2018-04-18T08:49:22.064Z,22.72
2018-04-18T08:50:22.057Z,22.70
2018-04-18T08:51:22.064Z,22.83
2018-04-18T08:52:22.040Z,22.95
2018-04-18T08:53:22.028Z,23.01
2018-04-18T08:54:22.023Z,23.22
2018-04-18T08:55:22.011Z,23.50
2018-04-18T08:56:22.037Z,23.90
2018-04-18T08:57:21.992Z,24.32
2018-04-18T08:58:21.983Z,24.93
2018-04-18T08:59:21.975Z,25.21
2018-04-18T09:00:21.964Z,25.45
2018-04-18T09:01:21.950Z,25.52
2018-04-18T09:02:21.957Z,24.76
2018-04-18T09:03:21.931Z,25.21
2018-04-18T09:04:21.923Z,25.28
2018-04-18T09:05:21.909Z,25.47
2018-04-18T09:06:21.922Z,25.98
2018-04-18T09:07:21.894Z,26.40
2018-04-18T09:08:21.883Z,26.65
2018-04-18T09:09:21.876Z,26.94
2018-04-18T09:10:21.872Z,27.18
2018-04-18T09:11:21.875Z,27.40
2018-04-18T09:12:21.849Z,27.36
2018-04-18T09:13:21.855Z,27.00
2018-04-18T09:14:21.836Z,26.57
2018-04-18T09:15:21.825Z,26.95
2018-04-18T09:16:21.815Z,27.39
2018-04-18T09:17:21.826Z,27.88
2018-04-18T09:18:21.798Z,28.22
2018-04-18T09:19:21.791Z,28.12
2018-04-18T09:20:21.781Z,28.29
2018-04-18T09:21:21.768Z,28.33
2018-04-18T09:22:21.760Z,28.61
2018-04-18T09:23:21.770Z,28.74
2018-04-18T09:24:21.764Z,29.11
2018-04-18T09:25:21.741Z,28.98
2018-04-18T09:26:21.730Z,28.39
2018-04-18T09:27:21.726Z,28.48
2018-04-18T09:28:21.712Z,28.59
2018-04-18T09:29:21.732Z,28.66
2018-04-18T09:30:21.703Z,28.51
2018-04-18T09:31:21.695Z,28.74
2018-04-18T09:32:21.692Z,28.95
2018-04-18T09:33:21.682Z,29.19
2018-04-18T09:34:21.701Z,29.23
2018-04-18T09:35:21.673Z,29.33
2018-04-18T09:36:21.666Z,29.49
2018-04-18T09:37:21.660Z,29.57
2018-04-18T09:38:21.662Z,29.70
2018-04-18T09:39:21.654Z,29.74
2018-04-18T09:40:21.666Z,29.14
2018-04-18T09:41:21.646Z,29.21
2018-04-18T09:42:21.657Z,29.30
2018-04-18T09:43:21.639Z,29.53
2018-04-18T09:44:21.639Z,29.68
2018-04-18T09:45:21.651Z,29.15
2018-04-18T09:46:21.636Z,29.57
2018-04-18T09:47:21.628Z,29.71
2018-04-18T09:48:21.638Z,29.83
2018-04-18T09:49:21.631Z,29.94
2018-04-18T09:50:21.642Z,30.26
2018-04-18T09:51:21.620Z,30.54
2018-04-18T09:52:21.622Z,30.89
2018-04-18T09:53:21.624Z,30.58
2018-04-18T09:54:21.625Z,30.47
2018-04-18T09:55:21.623Z,30.38
2018-04-18T09:56:21.633Z,30.24
2018-04-18T09:57:21.620Z,30.13
2018-04-18T09:58:21.656Z,29.12
2018-04-18T09:59:21.620Z,28.44
2018-04-18T10:00:21.620Z,28.03
2018-04-18T10:01:21.635Z,27.70
2018-04-18T10:02:21.623Z,27.97
2018-04-18T10:03:21.623Z,28.49
2018-04-18T10:04:21.628Z,28.90
2018-04-18T10:05:21.626Z,29.24
2018-04-18T10:06:21.642Z,29.61
2018-04-18T10:07:21.620Z,29.78
2018-04-18T10:08:21.629Z,28.59
2018-04-18T10:09:21.629Z,28.25
2018-04-18T10:10:21.638Z,28.43
2018-04-18T10:11:21.634Z,28.78
2018-04-18T10:12:21.646Z,29.16
2018-04-18T10:13:21.649Z,29.73
2018-04-18T10:14:21.633Z,29.90
2018-04-18T10:15:21.632Z,30.05
2018-04-18T10:16:21.642Z,30.01
2018-04-18T10:17:21.638Z,30.10
2018-04-18T10:18:21.655Z,30.45
2018-04-18T10:19:21.649Z,30.60
2018-04-18T10:20:21.645Z,30.60
2018-04-18T10:21:21.645Z,30.77
2018-04-18T10:22:21.649Z,30.79
2018-04-18T10:23:21.664Z,30.67
2018-04-18T10:24:21.655Z,30.70
2018-04-18T10:25:21.656Z,30.57
2018-04-18T10:26:21.653Z,30.92
2018-04-18T10:27:21.657Z,31.31
2018-04-18T10:28:21.672Z,29.95
2018-04-18T10:29:21.667Z,29.78
2018-04-18T10:30:21.663Z,29.68
2018-04-18T10:31:21.669Z,29.74
2018-04-18T10:32:21.672Z,30.07
2018-04-18T10:33:21.689Z,29.94
2018-04-18T10:34:21.680Z,29.89
2018-04-18T10:35:21.694Z,30.19
2018-04-18T10:36:21.680Z,30.49
2018-04-18T10:37:21.684Z,30.83
2018-04-18T10:38:21.683Z,30.88
2018-04-18T10:39:21.689Z,30.19
2018-04-18T10:40:21.707Z,29.61
2018-04-18T10:41:21.694Z,29.14
2018-04-18T10:42:21.697Z,28.85
2018-04-18T10:43:21.719Z,28.54
2018-04-18T10:44:21.704Z,29.05
2018-04-18T10:45:21.722Z,28.21
2018-04-18T10:46:21.703Z,27.67
2018-04-18T10:47:21.708Z,27.78
2018-04-18T10:48:21.715Z,27.96
2018-04-18T10:49:21.717Z,28.56
2018-04-18T10:50:21.720Z,29.41
2018-04-18T10:51:21.738Z,29.76
2018-04-18T10:52:21.718Z,30.08
2018-04-18T10:53:21.742Z,29.87
2018-04-18T10:54:21.725Z,29.73
2018-04-18T10:55:21.729Z,29.68
2018-04-18T10:56:21.735Z,29.45
2018-04-18T10:57:21.739Z,29.68
2018-04-18T10:58:21.758Z,29.27
2018-04-18T10:59:21.739Z,29.67
2018-04-18T11:00:21.747Z,29.65
2018-04-18T11:01:21.761Z,29.51
2018-04-18T11:02:21.765Z,29.15
2018-04-18T11:03:21.771Z,29.46
2018-04-18T11:04:21.751Z,29.61
2018-04-18T11:05:21.752Z,29.78
2018-04-18T11:06:21.815Z,29.90
2018-04-18T11:07:21.778Z,30.31
2018-04-18T11:08:21.769Z,30.47
2018-04-18T11:09:21.769Z,30.34
2018-04-18T11:10:21.770Z,30.22
2018-04-18T11:11:21.772Z,30.42
2018-04-18T11:12:21.792Z,30.37
2018-04-18T11:13:21.778Z,30.65
2018-04-18T11:14:21.785Z,30.82
2018-04-18T11:15:21.783Z,31.25
2018-04-18T11:16:21.788Z,31.36
2018-04-18T11:17:21.807Z,30.26
2018-04-18T11:18:21.796Z,30.54
2018-04-18T11:19:21.795Z,30.84
2018-04-18T11:20:21.799Z,31.02
2018-04-18T11:21:23.445Z,31.17
2018-04-18T11:22:21.814Z,31.23
2018-04-18T11:23:21.822Z,31.06
2018-04-18T11:24:21.820Z,31.28
2018-04-18T11:25:21.813Z,31.12
2018-04-18T11:26:21.822Z,31.31
2018-04-18T11:27:21.824Z,31.17
2018-04-18T11:28:21.852Z,31.02
2018-04-18T11:29:21.838Z,30.61
2018-04-18T11:30:21.839Z,30.76
2018-04-18T11:31:21.836Z,31.09
2018-04-18T11:32:21.839Z,31.31
2018-04-18T11:33:21.852Z,31.53
2018-04-18T11:34:21.864Z,31.65
2018-04-18T11:35:21.855Z,31.75
2018-04-18T11:36:21.861Z,31.66
2018-04-18T11:37:21.868Z,31.72
2018-04-18T11:38:21.868Z,31.57
2018-04-18T11:39:21.885Z,31.47
2018-04-18T11:40:21.878Z,31.41
2018-04-18T11:41:21.884Z,31.23
2018-04-18T11:42:21.888Z,31.29
2018-04-18T11:43:21.888Z,31.36
2018-04-18T11:44:21.929Z,31.32
2018-04-18T11:45:21.898Z,31.32
2018-04-18T11:46:21.901Z,31.09
2018-04-18T11:47:21.905Z,31.17
2018-04-18T11:48:21.905Z,31.31
2018-04-18T11:49:21.910Z,31.58
2018-04-18T11:50:21.933Z,31.69
2018-04-18T11:51:21.920Z,31.58
2018-04-18T11:52:21.927Z,31.39
2018-04-18T11:53:21.931Z,31.43
2018-04-18T11:54:21.930Z,31.68
2018-04-18T11:55:21.962Z,31.57
2018-04-18T11:56:22.725Z,31.70
2018-04-18T11:57:21.946Z,30.99
2018-04-18T11:58:21.962Z,30.02
2018-04-18T11:59:21.954Z,29.49
2018-04-18T12:00:21.970Z,30.02
2018-04-18T12:01:21.962Z,30.39
2018-04-18T12:02:21.979Z,30.49
2018-04-18T12:03:21.978Z,30.49
2018-04-18T12:04:21.974Z,30.70
2018-04-18T12:05:21.979Z,30.82
2018-04-18T12:06:22.006Z,30.95
2018-04-18T12:07:21.988Z,31.10
2018-04-18T12:08:21.990Z,31.35
2018-04-18T12:09:21.991Z,31.26
2018-04-18T12:10:22.000Z,31.26
2018-04-18T12:11:22.004Z,31.26
2018-04-18T12:12:22.021Z,31.48
2018-04-18T12:13:22.012Z,31.41
2018-04-18T12:14:22.017Z,31.48
2018-04-18T12:15:22.020Z,31.26
2018-04-18T12:16:22.046Z,31.04
2018-04-18T12:17:22.032Z,30.83
2018-04-18T12:18:22.053Z,30.92
2018-04-18T12:19:22.035Z,30.77
2018-04-18T12:20:22.040Z,30.91
2018-04-18T12:21:22.045Z,30.94
2018-04-18T12:22:22.048Z,30.05
2018-04-18T12:23:22.051Z,29.27
2018-04-18T12:24:22.070Z,29.15
2018-04-18T12:25:22.063Z,29.52
2018-04-18T12:26:22.063Z,29.82
2018-04-18T12:27:22.065Z,30.07
2018-04-18T12:28:22.088Z,30.22
2018-04-18T12:29:22.092Z,30.24
2018-04-18T12:30:22.081Z,30.46
2018-04-18T12:31:22.093Z,30.58
2018-04-18T12:32:22.095Z,30.26
2018-04-18T12:33:22.103Z,30.35
2018-04-18T12:34:22.110Z,30.27
2018-04-18T12:35:22.098Z,30.46
2018-04-18T12:36:22.099Z,30.51
2018-04-18T12:37:22.105Z,30.70
2018-04-18T12:38:22.112Z,30.69
2018-04-18T12:39:22.150Z,30.75
2018-04-18T12:40:22.120Z,30.91
2018-04-18T12:41:22.121Z,30.80
2018-04-18T12:42:22.129Z,30.67
2018-04-18T12:43:22.129Z,30.65
2018-04-18T12:44:22.133Z,30.60
2018-04-18T12:45:22.152Z,30.64
2018-04-18T12:46:22.141Z,30.34
2018-04-18T12:47:22.146Z,30.32
2018-04-18T12:48:22.148Z,30.49
2018-04-18T12:49:22.151Z,29.78
2018-04-18T12:50:22.170Z,29.80
2018-04-18T12:51:22.160Z,30.27
2018-04-18T12:52:22.175Z,30.49